PABI

Allen Army Airfield

Airport
ICAO code
PABI
IATA Code
BIG
Summary
ICAO Region
NAM
ICAO Territory
Location

Delta Junction, Alaska

Serving
Fort Greely
Elevation
1291 ft
Coordinates
63° 59' 40" N , 145° 43' 18" W
Metar
PABI 151653Z 00000KT 10SM SCT075 BKN100 BKN160 13/09 A3018 RMK AO2 SLP223 VIRGA DSNT SW W T01280089 $

Runways

Designator Length Width Surface Rops
7/25 1426 50 ASPH-G No/No
10/28 1864 46 ASPH-G No/No
1/19 2743 46 ASPH-G No/No

Airport map

Aerial View

SKYbrary Partners:

Safety knowledge contributed by: